createdAt,value
2017-08-15T00:00:36.405Z,19.79
2017-08-15T00:01:36.087Z,19.76
2017-08-15T00:02:36.698Z,19.79
2017-08-15T00:03:36.384Z,19.76
2017-08-15T00:04:36.368Z,19.73
2017-08-15T00:05:36.677Z,19.73
2017-08-15T00:06:36.666Z,19.68
2017-08-15T00:07:36.344Z,19.68
2017-08-15T00:08:36.653Z,19.68
2017-08-15T00:09:36.327Z,19.6
2017-08-15T00:10:36.311Z,19.6
2017-08-15T00:11:36.308Z,19.65
2017-08-15T00:12:35.984Z,19.54
2017-08-15T00:13:36.292Z,19.58
2017-08-15T00:14:36.602Z,19.48
2017-08-15T00:15:36.787Z,19.57
2017-08-15T00:16:36.570Z,19.53
2017-08-15T00:17:36.564Z,19.53
2017-08-15T00:18:36.248Z,19.55
2017-08-15T00:19:36.550Z,19.54
2017-08-15T00:20:36.590Z,19.47
2017-08-15T00:21:36.531Z,19.46
2017-08-15T00:22:35.898Z,19.42
2017-08-15T00:23:36.516Z,19.4
2017-08-15T00:24:36.508Z,19.39
2017-08-15T00:25:36.495Z,19.43
2017-08-15T00:26:36.486Z,19.36
2017-08-15T00:27:36.191Z,19.31
2017-08-15T00:28:36.465Z,19.25
2017-08-15T00:29:36.169Z,19.32
2017-08-15T00:30:36.336Z,19.25
2017-08-15T00:31:36.440Z,19.18
2017-08-15T00:32:36.115Z,19.24
2017-08-15T00:33:36.107Z,19.13
2017-08-15T00:34:36.411Z,19.14
2017-08-15T00:35:36.406Z,19.13
2017-08-15T00:36:36.085Z,19.13
2017-08-15T00:37:36.069Z,19.05
2017-08-15T00:38:36.068Z,19.05
2017-08-15T00:39:36.368Z,18.99
2017-08-15T00:40:36.559Z,19.02
2017-08-15T00:41:36.045Z,19.08
2017-08-15T00:42:36.333Z,19.06
2017-08-15T00:43:35.707Z,19.08
2017-08-15T00:44:36.320Z,19.01
2017-08-15T00:45:35.998Z,18.97
2017-08-15T00:46:35.984Z,18.94
2017-08-15T00:47:35.982Z,18.99
2017-08-15T00:48:35.972Z,18.92
2017-08-15T00:49:36.270Z,18.92
2017-08-15T00:50:35.948Z,18.95
2017-08-15T00:51:36.260Z,18.84
2017-08-15T00:52:35.931Z,18.92
2017-08-15T00:53:36.233Z,18.95
2017-08-15T00:54:36.226Z,18.92
2017-08-15T00:55:35.900Z,18.86
2017-08-15T00:56:36.212Z,18.9
2017-08-15T00:57:36.228Z,18.92
2017-08-15T00:58:36.190Z,18.9
2017-08-15T00:59:36.190Z,18.8
2017-08-15T01:00:35.857Z,18.79
2017-08-15T01:01:35.844Z,18.83
2017-08-15T01:02:35.833Z,18.82
2017-08-15T01:03:35.826Z,18.84
2017-08-15T01:04:36.134Z,18.79
2017-08-15T01:05:35.817Z,18.82
2017-08-15T01:06:35.800Z,18.8
2017-08-15T01:07:36.101Z,18.82
2017-08-15T01:08:35.787Z,18.74
2017-08-15T01:09:36.080Z,18.8
2017-08-15T01:10:35.451Z,18.79
2017-08-15T01:11:35.439Z,18.82
2017-08-15T01:12:36.052Z,18.79
2017-08-15T01:13:36.045Z,18.83
2017-08-15T01:14:36.039Z,18.73
2017-08-15T01:15:36.021Z,18.76
2017-08-15T01:16:35.752Z,18.82
2017-08-15T01:17:35.382Z,18.79
2017-08-15T01:18:35.699Z,18.72
2017-08-15T01:19:35.704Z,18.7
2017-08-15T01:20:35.667Z,18.68
2017-08-15T01:21:35.905Z,18.59
2017-08-15T01:22:35.961Z,18.59
2017-08-15T01:23:35.640Z,18.62
2017-08-15T01:24:35.940Z,18.59
2017-08-15T01:25:35.930Z,18.57
2017-08-15T01:26:35.932Z,18.74
2017-08-15T01:27:35.599Z,18.64
2017-08-15T01:28:35.902Z,18.59
2017-08-15T01:29:35.888Z,18.61
2017-08-15T01:30:35.570Z,18.52
2017-08-15T01:31:35.866Z,18.59
2017-08-15T01:32:35.549Z,18.62
2017-08-15T01:33:35.546Z,18.68
2017-08-15T01:34:35.841Z,18.54
2017-08-15T01:35:35.520Z,18.58
2017-08-15T01:36:35.830Z,18.55
2017-08-15T01:37:35.186Z,18.55
2017-08-15T01:38:35.499Z,18.57
2017-08-15T01:39:35.166Z,18.57
2017-08-15T01:40:35.160Z,18.58
2017-08-15T01:41:35.772Z,18.55
2017-08-15T01:42:35.138Z,18.5
2017-08-15T01:43:35.755Z,18.52
2017-08-15T01:44:35.432Z,18.5
2017-08-15T01:45:35.425Z,18.54
2017-08-15T01:46:35.725Z,18.4
2017-08-15T01:47:35.723Z,18.43
2017-08-15T01:48:35.711Z,18.46
2017-08-15T01:49:35.385Z,18.42
2017-08-15T01:50:35.378Z,18.5
2017-08-15T01:51:35.364Z,18.42
2017-08-15T01:52:35.666Z,18.39
2017-08-15T01:53:35.660Z,18.37
2017-08-15T01:54:35.334Z,18.36
2017-08-15T01:55:35.631Z,18.42
2017-08-15T01:56:35.315Z,18.42
2017-08-15T01:57:35.617Z,18.39
2017-08-15T01:58:35.295Z,18.36
2017-08-15T01:59:34.971Z,18.36
2017-08-15T02:00:35.279Z,18.37
2017-08-15T02:01:35.257Z,18.28
2017-08-15T02:02:35.571Z,18.28
2017-08-15T02:03:34.929Z,18.31
2017-08-15T02:04:35.235Z,18.31
2017-08-15T02:05:35.219Z,18.27
2017-08-15T02:06:35.223Z,18.31
2017-08-15T02:07:35.520Z,18.36
2017-08-15T02:08:35.193Z,18.24
2017-08-15T02:09:35.496Z,18.28
2017-08-15T02:10:35.178Z,18.28
2017-08-15T02:11:35.169Z,18.24
2017-08-15T02:12:35.405Z,18.29
2017-08-15T02:13:35.144Z,18.28
2017-08-15T02:14:35.139Z,18.25
2017-08-15T02:15:35.012Z,18.24
2017-08-15T02:16:35.110Z,18.29
2017-08-15T02:17:35.100Z,18.22
2017-08-15T02:18:35.119Z,18.22
2017-08-15T02:19:35.085Z,18.19
2017-08-15T02:20:35.385Z,18.13
2017-08-15T02:21:35.378Z,18.31
2017-08-15T02:22:35.070Z,18.19
2017-08-15T02:23:35.044Z,18.18
2017-08-15T02:24:35.345Z,18.18
2017-08-15T02:25:35.344Z,18.1
2017-08-15T02:26:35.332Z,18.17
2017-08-15T02:27:34.944Z,18.13
2017-08-15T02:28:35.306Z,18.1
2017-08-15T02:29:35.298Z,18.17
2017-08-15T02:30:35.283Z,18.09
2017-08-15T02:31:34.968Z,18.12
2017-08-15T02:32:34.645Z,18.15
2017-08-15T02:33:34.641Z,18.12
2017-08-15T02:34:34.943Z,18.12
2017-08-15T02:35:35.237Z,18.1
2017-08-15T02:36:35.233Z,18.06
2017-08-15T02:37:34.950Z,18.06
2017-08-15T02:38:34.889Z,18.07
2017-08-15T02:39:35.194Z,18.13
2017-08-15T02:40:35.191Z,18.07
2017-08-15T02:41:35.177Z,18.12
2017-08-15T02:42:34.787Z,18.12
2017-08-15T02:43:35.156Z,18.07
2017-08-15T02:44:34.833Z,18.09
2017-08-15T02:45:34.826Z,17.92
2017-08-15T02:46:34.815Z,17.99
2017-08-15T02:47:34.802Z,17.92
2017-08-15T02:48:35.110Z,18
2017-08-15T02:49:34.784Z,17.97
2017-08-15T02:50:35.106Z,17.94
2017-08-15T02:51:34.764Z,18.02
2017-08-15T02:52:34.948Z,17.95
2017-08-15T02:53:34.749Z,17.94
2017-08-15T02:54:34.416Z,17.97
2017-08-15T02:55:35.029Z,17.95
2017-08-15T02:56:35.022Z,18
2017-08-15T02:57:35.009Z,17.89
2017-08-15T02:58:35.000Z,17.99
2017-08-15T02:59:34.685Z,17.88
2017-08-15T03:00:34.666Z,17.84
2017-08-15T03:01:34.691Z,17.91
2017-08-15T03:02:34.963Z,17.85
2017-08-15T03:03:34.954Z,17.87
2017-08-15T03:04:34.626Z,17.82
2017-08-15T03:05:34.618Z,17.81
2017-08-15T03:06:34.918Z,17.85
2017-08-15T03:07:34.852Z,17.82
2017-08-15T03:08:34.901Z,17.85
2017-08-15T03:09:34.937Z,17.82
2017-08-15T03:10:34.252Z,17.79
2017-08-15T03:11:34.242Z,17.78
2017-08-15T03:12:34.336Z,17.81
2017-08-15T03:13:34.845Z,17.79
2017-08-15T03:14:34.526Z,17.76
2017-08-15T03:15:34.831Z,17.76
2017-08-15T03:16:34.840Z,17.67
2017-08-15T03:17:35.006Z,17.74
2017-08-15T03:18:34.796Z,17.7
2017-08-15T03:19:34.798Z,17.7
2017-08-15T03:20:34.462Z,17.69
2017-08-15T03:21:34.452Z,17.62
2017-08-15T03:22:34.444Z,17.66
2017-08-15T03:23:34.436Z,17.7
2017-08-15T03:24:34.737Z,17.74
2017-08-15T03:25:34.723Z,17.64
2017-08-15T03:26:34.401Z,17.69
2017-08-15T03:27:34.705Z,17.64
2017-08-15T03:28:34.691Z,17.7
2017-08-15T03:29:34.372Z,17.7
2017-08-15T03:30:34.377Z,17.63
2017-08-15T03:31:34.050Z,17.63
2017-08-15T03:32:34.344Z,17.62
2017-08-15T03:33:34.329Z,17.67
2017-08-15T03:34:34.320Z,17.64
2017-08-15T03:35:34.304Z,17.64
2017-08-15T03:36:34.614Z,17.66
2017-08-15T03:37:34.599Z,17.64
2017-08-15T03:38:34.585Z,17.67
2017-08-15T03:39:34.263Z,17.69
2017-08-15T03:40:34.255Z,17.67
2017-08-15T03:41:34.249Z,17.63
2017-08-15T03:42:34.751Z,17.66
2017-08-15T03:43:34.421Z,17.54
2017-08-15T03:44:34.222Z,17.67
2017-08-15T03:45:34.208Z,17.54
2017-08-15T03:46:34.196Z,17.69
2017-08-15T03:47:34.202Z,17.63
2017-08-15T03:48:34.173Z,17.66
2017-08-15T03:49:34.478Z,17.63
2017-08-15T03:50:33.840Z,17.64
2017-08-15T03:51:33.828Z,17.54
2017-08-15T03:52:34.130Z,17.64
2017-08-15T03:53:34.437Z,17.62
2017-08-15T03:54:34.112Z,17.59
2017-08-15T03:55:34.418Z,17.57
2017-08-15T03:56:34.403Z,17.55
2017-08-15T03:57:34.392Z,17.57
2017-08-15T03:58:34.008Z,17.55
2017-08-15T03:59:33.754Z,17.63
2017-08-15T04:00:34.073Z,17.55
2017-08-15T04:01:34.036Z,17.64
2017-08-15T04:02:34.378Z,17.55
2017-08-15T04:03:34.329Z,17.51
2017-08-15T04:04:33.693Z,17.48
2017-08-15T04:05:33.686Z,17.55
2017-08-15T04:06:34.309Z,17.53
2017-08-15T04:07:33.664Z,17.53
2017-08-15T04:08:33.964Z,17.5
2017-08-15T04:09:33.641Z,17.46
2017-08-15T04:10:34.255Z,17.53
2017-08-15T04:11:34.248Z,17.48
2017-08-15T04:12:34.235Z,17.46
2017-08-15T04:13:34.112Z,17.44
2017-08-15T04:14:33.904Z,17.46
2017-08-15T04:15:34.100Z,17.4
2017-08-15T04:16:33.571Z,17.47
2017-08-15T04:17:34.178Z,17.41
2017-08-15T04:18:34.172Z,17.51
2017-08-15T04:19:33.852Z,17.4
2017-08-15T04:20:33.526Z,17.48
2017-08-15T04:21:33.835Z,17.46
2017-08-15T04:22:33.817Z,17.5
2017-08-15T04:23:34.374Z,17.41
2017-08-15T04:24:34.114Z,17.51
2017-08-15T04:25:33.795Z,17.43
2017-08-15T04:26:34.104Z,17.53
2017-08-15T04:27:33.453Z,17.54
2017-08-15T04:28:33.761Z,17.48
2017-08-15T04:29:33.744Z,17.51
2017-08-15T04:30:34.048Z,17.47
2017-08-15T04:31:34.043Z,17.47
2017-08-15T04:32:34.023Z,17.53
2017-08-15T04:33:33.388Z,17.5
2017-08-15T04:34:34.005Z,17.53
2017-08-15T04:35:33.687Z,17.51
2017-08-15T04:36:33.986Z,17.5
2017-08-15T04:37:33.978Z,17.47
2017-08-15T04:38:33.853Z,17.48
2017-08-15T04:39:33.333Z,17.48
2017-08-15T04:40:33.943Z,17.55
2017-08-15T04:41:33.616Z,17.44
2017-08-15T04:42:33.603Z,17.47
2017-08-15T04:43:33.284Z,17.53
2017-08-15T04:44:33.586Z,17.5
2017-08-15T04:45:33.892Z,17.48
2017-08-15T04:46:33.562Z,17.51
2017-08-15T04:47:33.865Z,17.54
2017-08-15T04:48:34.104Z,17.51
2017-08-15T04:49:33.850Z,17.47
2017-08-15T04:50:33.527Z,17.46
2017-08-15T04:51:33.825Z,17.5
2017-08-15T04:52:33.499Z,17.46
2017-08-15T04:53:33.491Z,17.55
2017-08-15T04:54:33.166Z,17.48
2017-08-15T04:55:33.784Z,17.4
2017-08-15T04:56:33.147Z,17.51
2017-08-15T04:57:33.769Z,17.51
2017-08-15T04:58:33.756Z,17.46
2017-08-15T04:59:33.743Z,17.44
2017-08-15T05:00:33.728Z,17.44
2017-08-15T05:01:33.411Z,17.43
2017-08-15T05:02:33.087Z,17.46
2017-08-15T05:03:33.636Z,17.46
2017-08-15T05:04:33.695Z,17.43
2017-08-15T05:05:33.680Z,17.47
2017-08-15T05:06:33.673Z,17.43
2017-08-15T05:07:33.344Z,17.53
2017-08-15T05:08:33.691Z,17.54
2017-08-15T05:09:33.317Z,17.54
2017-08-15T05:10:33.310Z,17.51
2017-08-15T05:11:33.616Z,17.64
2017-08-15T05:12:32.988Z,17.54
2017-08-15T05:13:33.284Z,17.67
2017-08-15T05:14:33.269Z,17.54
2017-08-15T05:15:33.255Z,17.71
2017-08-15T05:16:33.561Z,17.63
2017-08-15T05:17:33.242Z,17.64
2017-08-15T05:18:32.916Z,17.73
2017-08-15T05:19:32.905Z,17.73
2017-08-15T05:20:33.519Z,17.73
2017-08-15T05:21:33.513Z,17.7
2017-08-15T05:22:33.185Z,17.73
2017-08-15T05:23:33.514Z,17.79
2017-08-15T05:24:33.475Z,17.78
2017-08-15T05:25:33.471Z,17.84
2017-08-15T05:26:33.464Z,17.84
2017-08-15T05:27:33.450Z,17.88
2017-08-15T05:28:33.442Z,17.87
2017-08-15T05:29:33.433Z,17.87
2017-08-15T05:30:33.103Z,17.97
2017-08-15T05:31:33.093Z,17.85
2017-08-15T05:32:33.081Z,17.92
2017-08-15T05:33:32.781Z,17.89
2017-08-15T05:34:33.379Z,18
2017-08-15T05:35:33.364Z,18
2017-08-15T05:36:33.357Z,18.04
2017-08-15T05:37:33.355Z,17.95
2017-08-15T05:38:32.704Z,18.1
2017-08-15T05:39:33.374Z,18.09
2017-08-15T05:40:33.310Z,18.12
2017-08-15T05:41:32.679Z,18.15
2017-08-15T05:42:33.299Z,18.13
2017-08-15T05:43:33.170Z,18.19
2017-08-15T05:44:32.874Z,18.19
2017-08-15T05:45:32.947Z,18.28
2017-08-15T05:46:32.938Z,18.22
2017-08-15T05:47:32.927Z,18.25
2017-08-15T05:48:33.235Z,18.21
2017-08-15T05:49:33.262Z,18.31
2017-08-15T05:50:32.895Z,18.34
2017-08-15T05:51:32.577Z,18.36
2017-08-15T05:52:32.882Z,18.39
2017-08-15T05:53:32.874Z,18.43
2017-08-15T05:54:32.862Z,18.39
2017-08-15T05:55:33.159Z,18.44
2017-08-15T05:56:32.526Z,18.5
2017-08-15T05:57:33.146Z,18.59
2017-08-15T05:58:33.139Z,18.57
2017-08-15T05:59:33.129Z,18.54
2017-08-15T06:00:32.510Z,18.61
2017-08-15T06:01:32.784Z,18.62
2017-08-15T06:02:33.096Z,18.67
2017-08-15T06:03:32.774Z,18.67
2017-08-15T06:04:33.071Z,18.76
2017-08-15T06:05:33.065Z,18.82
2017-08-15T06:06:32.427Z,18.82
2017-08-15T06:07:32.423Z,18.9
2017-08-15T06:08:33.032Z,18.92
2017-08-15T06:09:32.710Z,18.95
2017-08-15T06:10:33.017Z,19.01
2017-08-15T06:11:32.387Z,19.02
2017-08-15T06:12:32.997Z,19.11
2017-08-15T06:13:32.991Z,19.21
2017-08-15T06:14:32.359Z,19.18
2017-08-15T06:15:32.968Z,19.31
2017-08-15T06:16:32.642Z,19.32
2017-08-15T06:17:32.637Z,19.4
2017-08-15T06:18:32.326Z,19.38
2017-08-15T06:19:32.617Z,19.42
2017-08-15T06:20:32.924Z,19.5
2017-08-15T06:21:32.913Z,19.48
2017-08-15T06:22:32.589Z,19.58
2017-08-15T06:23:32.891Z,19.66
2017-08-15T06:24:32.258Z,19.73
2017-08-15T06:25:32.927Z,19.8
2017-08-15T06:26:32.866Z,19.84
2017-08-15T06:27:32.544Z,19.94
2017-08-15T06:28:32.842Z,19.94
2017-08-15T06:29:32.838Z,19.95
2017-08-15T06:30:32.515Z,19.97
2017-08-15T06:31:32.510Z,20.06
2017-08-15T06:32:32.498Z,20.1
2017-08-15T06:33:32.809Z,20.18
2017-08-15T06:34:32.794Z,20.18
2017-08-15T06:35:32.672Z,20.21
2017-08-15T06:36:32.788Z,20.23
2017-08-15T06:37:32.453Z,20.2
2017-08-15T06:38:32.452Z,20.3
2017-08-15T06:39:32.461Z,20.38
2017-08-15T06:40:32.430Z,20.38
2017-08-15T06:41:32.428Z,20.38
2017-08-15T06:42:32.415Z,20.49
2017-08-15T06:43:32.393Z,20.38
2017-08-15T06:44:32.709Z,20.43
2017-08-15T06:45:32.693Z,20.43
2017-08-15T06:46:32.681Z,20.43
2017-08-15T06:47:32.370Z,20.49
2017-08-15T06:48:32.692Z,20.51
2017-08-15T06:49:32.658Z,20.47
2017-08-15T06:50:32.666Z,20.59
2017-08-15T06:51:32.343Z,20.53
2017-08-15T06:52:32.321Z,20.56
2017-08-15T06:53:32.625Z,20.66
2017-08-15T06:54:32.618Z,20.62
2017-08-15T06:55:31.984Z,20.68
2017-08-15T06:56:31.982Z,20.8
2017-08-15T06:57:32.279Z,20.8
2017-08-15T06:58:32.272Z,20.84
2017-08-15T06:59:32.259Z,20.86
2017-08-15T07:00:32.571Z,20.93
2017-08-15T07:01:32.574Z,20.98
2017-08-15T07:02:31.920Z,21.05
2017-08-15T07:03:32.535Z,21.08
2017-08-15T07:04:32.543Z,21.19
2017-08-15T07:05:32.526Z,21.24
2017-08-15T07:06:32.518Z,21.24
2017-08-15T07:07:32.517Z,21.29
2017-08-15T07:08:32.188Z,21.32
2017-08-15T07:09:32.493Z,21.39
2017-08-15T07:10:32.178Z,21.54
2017-08-15T07:11:32.476Z,21.59
2017-08-15T07:12:32.472Z,21.59
2017-08-15T07:13:32.466Z,21.69
2017-08-15T07:14:32.135Z,21.74
2017-08-15T07:15:32.440Z,21.91
2017-08-15T07:16:32.130Z,21.99
2017-08-15T07:17:32.425Z,22.06
2017-08-15T07:18:32.418Z,22.17
2017-08-15T07:19:32.406Z,22.31
2017-08-15T07:20:32.407Z,22.41
2017-08-15T07:21:32.144Z,22.5
2017-08-15T07:22:32.387Z,22.44
2017-08-15T07:23:32.380Z,22.6
2017-08-15T07:24:32.059Z,22.65
2017-08-15T07:25:32.049Z,22.6
2017-08-15T07:26:32.362Z,22.71
2017-08-15T07:27:32.035Z,22.77
2017-08-15T07:28:32.035Z,22.8
2017-08-15T07:29:32.338Z,22.83
2017-08-15T07:30:32.015Z,22.84
2017-08-15T07:31:32.322Z,22.93
2017-08-15T07:32:32.323Z,22.86
2017-08-15T07:33:31.682Z,22.92
2017-08-15T07:34:31.991Z,23.05
2017-08-15T07:35:32.303Z,23.07
2017-08-15T07:36:32.288Z,23.09
2017-08-15T07:37:32.292Z,23.26
2017-08-15T07:38:31.963Z,23.24
2017-08-15T07:39:31.951Z,23.45
2017-08-15T07:40:31.945Z,23.45
2017-08-15T07:41:32.303Z,23.45
2017-08-15T07:42:31.623Z,23.47
2017-08-15T07:43:32.131Z,23.38
2017-08-15T07:44:32.234Z,23.46
2017-08-15T07:45:32.223Z,23.58
2017-08-15T07:46:32.223Z,23.6
2017-08-15T07:47:31.590Z,23.58
2017-08-15T07:48:32.204Z,23.75
2017-08-15T07:49:32.198Z,23.77
2017-08-15T07:50:31.878Z,23.72
2017-08-15T07:51:31.923Z,23.83
2017-08-15T07:52:32.180Z,23.95
2017-08-15T07:53:32.179Z,23.92
2017-08-15T07:54:32.170Z,24.01
2017-08-15T07:55:32.161Z,24.1
2017-08-15T07:56:32.204Z,24.13
2017-08-15T07:57:31.838Z,24.22
2017-08-15T07:58:31.832Z,24.24
2017-08-15T07:59:31.523Z,24.27
2017-08-15T08:00:31.828Z,24.34
2017-08-15T08:01:32.126Z,24.34
2017-08-15T08:02:31.807Z,24.38
2017-08-15T08:03:32.115Z,24.32
2017-08-15T08:04:31.795Z,24.37
2017-08-15T08:05:31.792Z,24.45
2017-08-15T08:06:31.469Z,24.44
2017-08-15T08:07:32.096Z,24.39
2017-08-15T08:08:31.774Z,24.54
2017-08-15T08:09:32.085Z,24.53
2017-08-15T08:10:32.070Z,24.59
2017-08-15T08:11:32.072Z,24.54
2017-08-15T08:12:31.748Z,24.64
2017-08-15T08:13:32.060Z,24.63
2017-08-15T08:14:31.740Z,24.8
2017-08-15T08:15:31.732Z,24.87
2017-08-15T08:16:31.728Z,24.98
2017-08-15T08:17:31.455Z,24.91
2017-08-15T08:18:31.717Z,25.01
2017-08-15T08:19:31.713Z,25.24
2017-08-15T08:20:31.709Z,25.34
2017-08-15T08:21:32.012Z,25.35
2017-08-15T08:22:32.004Z,25.44
2017-08-15T08:23:31.691Z,25.69
2017-08-15T08:24:31.714Z,25.83
2017-08-15T08:25:32.002Z,26.06
2017-08-15T08:26:31.678Z,26.37
2017-08-15T08:27:31.988Z,26.37
2017-08-15T08:28:31.978Z,26.42
2017-08-15T08:29:31.345Z,26.37
2017-08-15T08:30:31.967Z,26.27
2017-08-15T08:31:31.965Z,26.2
2017-08-15T08:32:31.692Z,26.05
2017-08-15T08:33:31.656Z,26.01
2017-08-15T08:34:31.952Z,25.94
2017-08-15T08:35:31.631Z,25.74
2017-08-15T08:36:31.954Z,25.83
2017-08-15T08:37:31.630Z,25.82
2017-08-15T08:38:31.632Z,25.77
2017-08-15T08:39:31.954Z,25.84
2017-08-15T08:40:31.716Z,25.79
2017-08-15T08:41:31.608Z,25.74
2017-08-15T08:42:31.656Z,25.65
2017-08-15T08:43:31.909Z,25.59
2017-08-15T08:44:31.591Z,25.56
2017-08-15T08:45:31.591Z,25.61
2017-08-15T08:46:31.583Z,25.54
2017-08-15T08:47:31.893Z,25.54
2017-08-15T08:48:31.579Z,25.42
2017-08-15T08:49:31.885Z,25.38
2017-08-15T08:50:31.257Z,25.35
2017-08-15T08:51:31.245Z,25.32
2017-08-15T08:52:31.554Z,25.31
2017-08-15T08:53:31.551Z,25.31
2017-08-15T08:54:31.859Z,25.31
2017-08-15T08:55:31.850Z,25.24
2017-08-15T08:56:31.225Z,25.2
2017-08-15T08:57:31.892Z,25.2
2017-08-15T08:58:31.532Z,25.22
2017-08-15T08:59:31.525Z,25.24
2017-08-15T09:00:31.205Z,25.12
2017-08-15T09:01:31.829Z,25.13
2017-08-15T09:02:31.830Z,25.15
2017-08-15T09:03:31.507Z,25.13
2017-08-15T09:04:31.183Z,25.12
2017-08-15T09:05:31.179Z,25.12
2017-08-15T09:06:31.492Z,25.17
2017-08-15T09:07:31.478Z,25.17
2017-08-15T09:08:31.484Z,25.19
2017-08-15T09:09:31.170Z,25.16
2017-08-15T09:10:31.776Z,25.31
2017-08-15T09:11:31.462Z,25.34
2017-08-15T09:12:31.453Z,25.34
2017-08-15T09:13:31.460Z,25.38
2017-08-15T09:14:31.445Z,25.44
2017-08-15T09:15:31.758Z,25.49
2017-08-15T09:16:31.457Z,25.46
2017-08-15T09:17:31.790Z,25.54
2017-08-15T09:18:31.739Z,25.57
2017-08-15T09:19:31.420Z,25.56
2017-08-15T09:20:31.411Z,25.62
2017-08-15T09:21:31.721Z,25.64
2017-08-15T09:22:31.724Z,25.67
2017-08-15T09:23:31.409Z,25.77
2017-08-15T09:24:31.393Z,25.71
2017-08-15T09:25:31.404Z,25.77
2017-08-15T09:26:31.383Z,25.86
2017-08-15T09:27:31.737Z,25.8
2017-08-15T09:28:31.687Z,25.82
2017-08-15T09:29:31.700Z,25.77
2017-08-15T09:30:31.683Z,25.74
2017-08-15T09:31:31.685Z,25.79
2017-08-15T09:32:31.361Z,25.77
2017-08-15T09:33:31.356Z,25.8
2017-08-15T09:34:31.346Z,25.75
2017-08-15T09:35:31.339Z,25.79
2017-08-15T09:36:31.025Z,25.8
2017-08-15T09:37:31.699Z,25.79
2017-08-15T09:38:31.335Z,25.77
2017-08-15T09:39:31.321Z,25.84
2017-08-15T09:40:31.366Z,25.84
2017-08-15T09:41:31.634Z,25.83
2017-08-15T09:42:31.307Z,25.83
2017-08-15T09:43:31.827Z,25.79
2017-08-15T09:44:31.008Z,25.8
2017-08-15T09:45:30.983Z,25.8
2017-08-15T09:46:30.976Z,25.8
2017-08-15T09:47:31.290Z,25.77
2017-08-15T09:48:30.965Z,25.74
2017-08-15T09:49:31.275Z,25.75
2017-08-15T09:50:31.274Z,25.72
2017-08-15T09:51:31.577Z,25.62
2017-08-15T09:52:31.282Z,25.59
2017-08-15T09:53:31.577Z,25.59
2017-08-15T09:54:31.249Z,25.65
2017-08-15T09:55:31.250Z,25.59
2017-08-15T09:56:31.549Z,25.68
2017-08-15T09:57:31.549Z,25.62
2017-08-15T09:58:31.551Z,25.61
2017-08-15T09:59:31.236Z,25.65
2017-08-15T10:00:31.565Z,25.61
2017-08-15T10:01:31.528Z,25.64
2017-08-15T10:02:31.258Z,25.57
2017-08-15T10:03:30.900Z,25.62
2017-08-15T10:04:31.523Z,25.59
2017-08-15T10:05:31.206Z,25.62
2017-08-15T10:06:31.200Z,25.71
2017-08-15T10:07:31.552Z,25.71
2017-08-15T10:08:31.505Z,25.72
2017-08-15T10:09:30.864Z,25.62
2017-08-15T10:10:30.857Z,25.57
2017-08-15T10:11:31.485Z,25.57
2017-08-15T10:12:31.529Z,25.65
2017-08-15T10:13:31.468Z,25.61
2017-08-15T10:14:30.849Z,25.57
2017-08-15T10:15:31.146Z,25.56
2017-08-15T10:16:31.144Z,25.61
2017-08-15T10:17:31.452Z,25.59
2017-08-15T10:18:31.139Z,25.47
2017-08-15T10:19:31.137Z,25.56
2017-08-15T10:20:30.829Z,25.49
2017-08-15T10:21:31.117Z,25.49
2017-08-15T10:22:31.120Z,25.44
2017-08-15T10:23:31.419Z,25.42
2017-08-15T10:24:30.794Z,25.39
2017-08-15T10:25:31.104Z,25.39
2017-08-15T10:26:31.409Z,25.5
2017-08-15T10:27:30.780Z,25.35
2017-08-15T10:28:31.084Z,25.35
2017-08-15T10:29:30.775Z,25.38
2017-08-15T10:30:30.776Z,25.32
2017-08-15T10:31:31.067Z,25.22
2017-08-15T10:32:31.381Z,25.17
2017-08-15T10:33:31.062Z,25.1
2017-08-15T10:34:31.064Z,25.01
2017-08-15T10:35:31.057Z,25
2017-08-15T10:36:31.363Z,25.02
2017-08-15T10:37:31.350Z,25
2017-08-15T10:38:31.342Z,24.91
2017-08-15T10:39:31.337Z,25
2017-08-15T10:40:31.332Z,24.98
2017-08-15T10:41:30.704Z,25
2017-08-15T10:42:31.332Z,24.91
2017-08-15T10:43:31.005Z,24.87
2017-08-15T10:44:31.000Z,24.91
2017-08-15T10:45:31.308Z,24.88
2017-08-15T10:46:31.305Z,24.82
2017-08-15T10:47:31.301Z,24.82
2017-08-15T10:48:31.289Z,24.82
2017-08-15T10:49:30.661Z,24.79
2017-08-15T10:50:31.277Z,24.71
2017-08-15T10:51:30.640Z,24.67
2017-08-15T10:52:31.264Z,24.68
2017-08-15T10:53:30.946Z,24.68
2017-08-15T10:54:31.258Z,24.63
2017-08-15T10:55:30.622Z,24.63
2017-08-15T10:56:31.247Z,24.64
2017-08-15T10:57:30.922Z,24.61
2017-08-15T10:58:30.607Z,24.61
2017-08-15T10:59:30.603Z,24.61
2017-08-15T11:00:30.602Z,24.64
2017-08-15T11:01:31.213Z,24.61
2017-08-15T11:02:31.216Z,24.61
2017-08-15T11:03:30.886Z,24.69
2017-08-15T11:04:30.879Z,24.61
2017-08-15T11:05:31.193Z,24.64
2017-08-15T11:06:31.187Z,24.68
2017-08-15T11:07:30.561Z,24.68
2017-08-15T11:08:31.171Z,24.73
2017-08-15T11:09:30.853Z,24.63
2017-08-15T11:10:30.849Z,24.8
2017-08-15T11:11:31.155Z,24.8
2017-08-15T11:12:30.846Z,24.79
2017-08-15T11:13:30.891Z,24.92
2017-08-15T11:14:31.141Z,25
2017-08-15T11:15:30.514Z,25.01
2017-08-15T11:16:31.132Z,25.05
2017-08-15T11:17:30.817Z,25
2017-08-15T11:18:30.815Z,25.02
2017-08-15T11:19:30.799Z,25.05
2017-08-15T11:20:31.107Z,25.05
2017-08-15T11:21:31.101Z,24.94
2017-08-15T11:22:31.101Z,25.05
2017-08-15T11:23:30.467Z,25.06
2017-08-15T11:24:31.086Z,25
2017-08-15T11:25:30.787Z,25.05
2017-08-15T11:26:30.448Z,25.05
2017-08-15T11:27:31.071Z,25.09
2017-08-15T11:28:30.444Z,24.94
2017-08-15T11:29:30.747Z,25.09
2017-08-15T11:30:30.743Z,24.98
2017-08-15T11:31:31.052Z,25.02
2017-08-15T11:32:31.057Z,25.01
2017-08-15T11:33:30.734Z,25.01
2017-08-15T11:34:31.051Z,25.07
2017-08-15T11:35:31.040Z,25.05
2017-08-15T11:36:30.713Z,24.98
2017-08-15T11:37:31.021Z,24.97
2017-08-15T11:38:31.014Z,25.1
2017-08-15T11:39:30.692Z,25.1
2017-08-15T11:40:31.005Z,25.17
2017-08-15T11:41:30.380Z,25.2
2017-08-15T11:42:30.679Z,25.24
2017-08-15T11:43:31.190Z,25.3
2017-08-15T11:44:30.982Z,25.34
2017-08-15T11:45:30.676Z,25.31
2017-08-15T11:46:30.658Z,25.39
2017-08-15T11:47:30.657Z,25.56
2017-08-15T11:48:30.676Z,25.5
2017-08-15T11:49:30.341Z,25.57
2017-08-15T11:50:30.637Z,25.5
2017-08-15T11:51:30.956Z,25.64
2017-08-15T11:52:30.947Z,25.69
2017-08-15T11:53:30.621Z,25.77
2017-08-15T11:54:30.622Z,25.69
2017-08-15T11:55:30.620Z,25.77
2017-08-15T11:56:30.611Z,25.84
2017-08-15T11:57:30.922Z,25.98
2017-08-15T11:58:30.615Z,26.25
2017-08-15T11:59:30.599Z,26.58
2017-08-15T12:00:30.593Z,27.05
2017-08-15T12:01:30.902Z,27.54
2017-08-15T12:02:30.905Z,27.96
2017-08-15T12:03:30.611Z,28.51
2017-08-15T12:04:30.895Z,29.25
2017-08-15T12:05:30.577Z,29.63
2017-08-15T12:06:30.897Z,29.99
2017-08-15T12:07:30.582Z,30.02
2017-08-15T12:08:30.884Z,29.72
2017-08-15T12:09:30.261Z,29.56
2017-08-15T12:10:30.586Z,29.37
2017-08-15T12:11:30.570Z,29.25
2017-08-15T12:12:30.568Z,29.25
2017-08-15T12:13:30.576Z,29.55
2017-08-15T12:14:30.572Z,29.93
2017-08-15T12:15:30.573Z,29.82
2017-08-15T12:16:30.888Z,29.89
2017-08-15T12:17:30.593Z,30.14
2017-08-15T12:18:30.575Z,30.3
2017-08-15T12:19:30.260Z,30.43
2017-08-15T12:20:30.580Z,30.21
2017-08-15T12:21:30.585Z,30.07
2017-08-15T12:22:30.899Z,29.77
2017-08-15T12:23:30.268Z,29.43
2017-08-15T12:24:30.263Z,29.25
2017-08-15T12:25:30.590Z,29.19
2017-08-15T12:26:30.589Z,29.03
2017-08-15T12:27:30.595Z,29.01
2017-08-15T12:28:30.582Z,29.01
2017-08-15T12:29:30.582Z,29.13
2017-08-15T12:30:30.271Z,29.22
2017-08-15T12:31:30.610Z,29.37
2017-08-15T12:32:30.585Z,29.52
2017-08-15T12:33:30.896Z,29.5
2017-08-15T12:34:30.278Z,29.4
2017-08-15T12:35:30.585Z,29.37
2017-08-15T12:36:30.584Z,29.56
2017-08-15T12:37:30.275Z,29.55
2017-08-15T12:38:30.270Z,29.56
2017-08-15T12:39:30.901Z,29.93
2017-08-15T12:40:30.273Z,30.14
2017-08-15T12:41:30.591Z,30.49
2017-08-15T12:42:30.902Z,31.05
2017-08-15T12:43:30.904Z,31.33
2017-08-15T12:44:30.592Z,31.77
2017-08-15T12:45:30.896Z,31.99
2017-08-15T12:46:30.909Z,32.25
2017-08-15T12:47:30.281Z,32.48
2017-08-15T12:48:30.604Z,32.79
2017-08-15T12:49:30.960Z,32.84
2017-08-15T12:50:30.909Z,32.74
2017-08-15T12:51:30.599Z,32.96
2017-08-15T12:52:30.918Z,33.11
2017-08-15T12:53:30.920Z,33.3
2017-08-15T12:54:30.607Z,33.45
2017-08-15T12:55:30.612Z,33.31
2017-08-15T12:56:30.619Z,33.49